createdAt,value
2023-04-26T00:00:32.007Z,33.38
2023-04-26T00:01:32.022Z,33.41
2023-04-26T00:02:32.101Z,33.40
2023-04-26T00:03:32.123Z,33.48
2023-04-26T00:04:32.350Z,33.45
2023-04-26T00:05:32.111Z,33.50
2023-04-26T00:06:32.107Z,33.50
2023-04-26T00:07:32.108Z,33.55
2023-04-26T00:08:32.149Z,33.55
2023-04-26T00:09:32.188Z,33.51
2023-04-26T00:10:32.197Z,33.48
2023-04-26T00:11:32.223Z,33.51
2023-04-26T00:12:32.228Z,33.52
2023-04-26T00:13:32.273Z,33.56
2023-04-26T00:14:32.297Z,33.54
2023-04-26T00:15:32.300Z,33.53
2023-04-26T00:16:32.322Z,33.60
2023-04-26T00:17:32.348Z,33.57
2023-04-26T00:18:32.391Z,33.65
2023-04-26T00:19:32.373Z,33.61
2023-04-26T00:20:32.434Z,33.69
2023-04-26T00:21:32.436Z,33.69
2023-04-26T00:22:32.481Z,33.67
2023-04-26T00:23:32.473Z,33.75
2023-04-26T00:24:32.524Z,33.79
2023-04-26T00:25:32.531Z,33.79
2023-04-26T00:26:32.569Z,33.80
2023-04-26T00:27:32.564Z,33.79
2023-04-26T00:28:32.588Z,33.81
2023-04-26T00:29:32.639Z,33.83
2023-04-26T00:30:32.662Z,33.85
2023-04-26T00:31:32.756Z,33.85
2023-04-26T00:32:32.741Z,33.81
2023-04-26T00:33:32.725Z,33.86
2023-04-26T00:34:33.248Z,33.90
2023-04-26T00:35:32.783Z,33.87
2023-04-26T00:36:32.807Z,33.92
2023-04-26T00:37:32.840Z,33.95
2023-04-26T00:38:32.851Z,33.97
2023-04-26T00:39:32.867Z,34.01
2023-04-26T00:40:32.897Z,34.08
2023-04-26T00:41:32.948Z,34.11
2023-04-26T00:42:32.974Z,34.14
2023-04-26T00:43:33.031Z,34.17
2023-04-26T00:44:33.027Z,34.20
2023-04-26T00:45:33.140Z,34.22
2023-04-26T00:46:33.101Z,34.23
2023-04-26T00:47:33.175Z,34.28
2023-04-26T00:48:33.164Z,34.30
2023-04-26T00:49:33.176Z,34.32
2023-04-26T00:50:33.248Z,34.36
2023-04-26T00:51:33.262Z,34.42
2023-04-26T00:52:33.319Z,34.48
2023-04-26T00:53:33.311Z,34.54
2023-04-26T00:54:33.364Z,34.54
2023-04-26T00:55:33.459Z,34.57
2023-04-26T00:56:33.416Z,34.57
2023-04-26T00:57:33.459Z,34.64
2023-04-26T00:58:33.480Z,34.66
2023-04-26T00:59:33.518Z,34.66
2023-04-26T01:00:33.567Z,34.66
2023-04-26T01:01:33.741Z,34.81
2023-04-26T01:02:33.741Z,34.79
2023-04-26T01:03:33.754Z,34.83
2023-04-26T01:04:33.778Z,34.91
2023-04-26T01:05:33.729Z,34.91
2023-04-26T01:06:33.759Z,34.91
2023-04-26T01:07:33.828Z,34.94
2023-04-26T01:08:33.808Z,34.94
2023-04-26T01:09:33.875Z,34.99
2023-04-26T01:10:33.860Z,35.05
2023-04-26T01:11:33.892Z,35.01
2023-04-26T01:12:33.914Z,34.97
2023-04-26T01:13:33.948Z,35.02
2023-04-26T01:14:33.998Z,35.02
2023-04-26T01:15:34.038Z,35.06
2023-04-26T01:16:34.119Z,35.05
2023-04-26T01:17:34.111Z,35.06
2023-04-26T01:18:34.098Z,35.08
2023-04-26T01:19:34.117Z,35.07
2023-04-26T01:20:34.204Z,35.09
2023-04-26T01:21:34.222Z,35.08
2023-04-26T01:22:34.248Z,35.10
2023-04-26T01:23:34.253Z,35.12
2023-04-26T01:24:34.306Z,35.16
2023-04-26T01:25:34.334Z,35.16
2023-04-26T01:26:34.384Z,35.23
2023-04-26T01:27:34.392Z,35.32
2023-04-26T01:28:34.426Z,35.29
2023-04-26T01:29:34.481Z,35.26
2023-04-26T01:30:34.505Z,35.28
2023-04-26T01:31:34.574Z,35.29
2023-04-26T01:32:34.628Z,35.25
2023-04-26T01:33:34.601Z,35.19
2023-04-26T01:34:34.656Z,35.19
2023-04-26T01:35:34.691Z,35.19
2023-04-26T01:36:34.725Z,35.10
2023-04-26T01:37:34.734Z,35.07
2023-04-26T01:38:34.776Z,35.01
2023-04-26T01:39:34.801Z,34.99
2023-04-26T01:40:34.865Z,34.91
2023-04-26T01:41:34.920Z,34.85
2023-04-26T01:42:34.891Z,34.82
2023-04-26T01:43:34.911Z,34.86
2023-04-26T01:44:34.951Z,34.83
2023-04-26T01:45:35.049Z,34.79
2023-04-26T01:46:35.094Z,34.75
2023-04-26T01:47:35.104Z,34.72
2023-04-26T01:48:35.077Z,34.68
2023-04-26T01:49:35.139Z,34.68
2023-04-26T01:50:35.152Z,34.71
2023-04-26T01:51:35.174Z,34.71
2023-04-26T01:52:35.225Z,34.76
2023-04-26T01:53:35.296Z,34.74
2023-04-26T01:54:35.273Z,34.71
2023-04-26T01:55:35.325Z,34.68
2023-04-26T01:56:35.369Z,34.72
2023-04-26T01:57:35.385Z,34.73
2023-04-26T01:58:35.442Z,34.79
2023-04-26T01:59:35.461Z,34.72
2023-04-26T02:00:35.488Z,34.73
2023-04-26T02:01:35.587Z,34.73
2023-04-26T02:02:35.730Z,34.78
2023-04-26T02:03:35.672Z,34.79
2023-04-26T02:04:35.684Z,34.75
2023-04-26T02:05:35.695Z,34.76
2023-04-26T02:06:35.788Z,34.69
2023-04-26T02:07:35.806Z,34.72
2023-04-26T02:08:35.854Z,34.65
2023-04-26T02:09:35.912Z,34.62
2023-04-26T02:10:35.926Z,34.62
2023-04-26T02:11:35.986Z,34.60
2023-04-26T02:12:36.019Z,34.62
2023-04-26T02:13:36.058Z,34.61
2023-04-26T02:14:36.113Z,34.59
2023-04-26T02:15:36.159Z,34.58
2023-04-26T02:16:36.273Z,34.61
2023-04-26T02:17:36.272Z,34.66
2023-04-26T02:18:36.308Z,34.66
2023-04-26T02:19:36.320Z,34.68
2023-04-26T02:20:36.367Z,34.71
2023-04-26T02:21:36.427Z,34.73
2023-04-26T02:22:36.461Z,34.69
2023-04-26T02:23:36.468Z,34.74
2023-04-26T02:24:36.518Z,34.77
2023-04-26T02:25:36.599Z,34.78
2023-04-26T02:26:36.609Z,34.79
2023-04-26T02:27:36.701Z,34.83
2023-04-26T02:28:36.740Z,34.83
2023-04-26T02:29:44.496Z,34.83
2023-04-26T02:30:37.789Z,34.85
2023-04-26T02:31:36.794Z,34.89
2023-04-26T02:32:36.803Z,34.88
2023-04-26T02:33:36.765Z,34.88
2023-04-26T02:34:36.756Z,34.89
2023-04-26T02:35:36.770Z,34.92
2023-04-26T02:36:36.699Z,34.98
2023-04-26T02:37:36.737Z,35.01
2023-04-26T02:38:36.770Z,35.05
2023-04-26T02:39:36.732Z,35.07
2023-04-26T02:40:36.797Z,35.13
2023-04-26T02:41:36.832Z,35.06
2023-04-26T02:42:36.916Z,35.10
2023-04-26T02:43:36.926Z,35.11
2023-04-26T02:44:37.023Z,35.07
2023-04-26T02:45:37.047Z,35.09
2023-04-26T02:46:37.105Z,35.14
2023-04-26T02:47:37.169Z,35.12
2023-04-26T02:48:37.188Z,35.15
2023-04-26T02:49:37.252Z,35.13
2023-04-26T02:50:37.330Z,35.12
2023-04-26T02:51:37.396Z,35.13
2023-04-26T02:52:37.410Z,35.13
2023-04-26T02:53:37.525Z,35.11
2023-04-26T02:54:37.589Z,35.09
2023-04-26T02:55:37.604Z,35.12
2023-04-26T02:56:37.681Z,35.10
2023-04-26T02:57:37.688Z,35.14
2023-04-26T02:58:37.736Z,35.11
2023-04-26T02:59:37.808Z,35.13
2023-04-26T03:00:37.886Z,35.15
2023-04-26T03:01:37.970Z,35.18
2023-04-26T03:02:38.100Z,35.20
2023-04-26T03:03:38.296Z,35.21
2023-04-26T03:04:38.124Z,35.22
2023-04-26T03:05:38.153Z,35.24
2023-04-26T03:06:38.231Z,35.23
2023-04-26T03:07:38.278Z,35.22
2023-04-26T03:08:38.346Z,35.27
2023-04-26T03:09:38.369Z,35.28
2023-04-26T03:10:38.448Z,35.33
2023-04-26T03:11:38.505Z,35.33
2023-04-26T03:12:38.585Z,35.33
2023-04-26T03:13:38.627Z,35.27
2023-04-26T03:14:38.688Z,35.26
2023-04-26T03:15:38.745Z,35.30
2023-04-26T03:16:38.806Z,35.28
2023-04-26T03:17:38.904Z,35.26
2023-04-26T03:18:38.958Z,35.31
2023-04-26T03:19:38.998Z,35.33
2023-04-26T03:20:39.050Z,35.38
2023-04-26T03:21:39.138Z,35.44
2023-04-26T03:22:39.191Z,35.43
2023-04-26T03:23:39.273Z,35.42
2023-04-26T03:24:39.336Z,35.46
2023-04-26T03:25:39.413Z,35.49
2023-04-26T03:26:39.456Z,35.53
2023-04-26T03:27:39.498Z,35.53
2023-04-26T03:28:39.569Z,35.49
2023-04-26T03:29:40.067Z,35.52
2023-04-26T03:30:39.698Z,35.56
2023-04-26T03:31:39.772Z,35.59
2023-04-26T03:32:39.840Z,35.63
2023-04-26T03:33:39.827Z,35.61
2023-04-26T03:34:39.904Z,35.60
2023-04-26T03:35:39.923Z,35.69
2023-04-26T03:36:39.971Z,35.64
2023-04-26T03:37:40.229Z,35.63
2023-04-26T03:38:40.121Z,35.65
2023-04-26T03:39:40.195Z,35.73
2023-04-26T03:40:40.259Z,35.71
2023-04-26T03:41:40.298Z,35.70
2023-04-26T03:42:40.333Z,35.74
2023-04-26T03:43:40.328Z,35.76
2023-04-26T03:44:40.335Z,35.79
2023-04-26T03:45:40.458Z,35.78
2023-04-26T03:46:40.417Z,35.82
2023-04-26T03:47:40.452Z,35.89
2023-04-26T03:48:40.474Z,35.91
2023-04-26T03:49:40.563Z,35.91
2023-04-26T03:50:40.650Z,35.90
2023-04-26T03:51:40.721Z,35.83
2023-04-26T03:52:40.761Z,35.85
2023-04-26T03:53:40.798Z,35.92
2023-04-26T03:54:40.826Z,35.88
2023-04-26T03:55:40.820Z,35.86
2023-04-26T03:56:40.824Z,35.87
2023-04-26T03:57:40.823Z,35.88
2023-04-26T03:58:40.898Z,35.94
2023-04-26T03:59:40.922Z,35.86
2023-04-26T04:00:40.924Z,35.77
2023-04-26T04:01:40.918Z,35.73
2023-04-26T04:02:41.051Z,35.72
2023-04-26T04:03:41.718Z,35.73
2023-04-26T04:04:41.059Z,35.67
2023-04-26T04:05:41.023Z,35.67
2023-04-26T04:06:40.916Z,35.61
2023-04-26T04:07:40.949Z,35.57
2023-04-26T04:08:41.047Z,35.56
2023-04-26T04:09:41.125Z,35.56
2023-04-26T04:10:41.217Z,35.55
2023-04-26T04:11:41.128Z,35.57
2023-04-26T04:12:41.142Z,35.58
2023-04-26T04:13:41.139Z,35.54
2023-04-26T04:14:41.135Z,35.55
2023-04-26T04:15:41.282Z,35.54
2023-04-26T04:16:41.330Z,35.52
2023-04-26T04:17:41.490Z,35.49
2023-04-26T04:18:41.538Z,35.48
2023-04-26T04:19:41.539Z,35.53
2023-04-26T04:20:41.623Z,35.50
2023-04-26T04:21:41.569Z,35.46
2023-04-26T04:22:41.594Z,35.37
2023-04-26T04:23:41.571Z,35.37
2023-04-26T04:24:41.605Z,35.37
2023-04-26T04:25:41.732Z,35.36
2023-04-26T04:26:41.825Z,35.34
2023-04-26T04:27:41.902Z,35.35
2023-04-26T04:28:42.011Z,35.35
2023-04-26T04:29:42.055Z,35.35
2023-04-26T04:30:42.102Z,35.34
2023-04-26T04:31:42.193Z,35.30
2023-04-26T04:32:42.106Z,35.23
2023-04-26T04:33:42.062Z,35.20
2023-04-26T04:34:42.043Z,35.19
2023-04-26T04:35:42.178Z,35.18
2023-04-26T04:36:42.183Z,35.13
2023-04-26T04:37:42.168Z,35.08
2023-04-26T04:38:42.141Z,35.10
2023-04-26T04:39:42.167Z,35.05
2023-04-26T04:40:42.196Z,35.04
2023-04-26T04:41:42.202Z,35.02
2023-04-26T04:42:42.297Z,35.02
2023-04-26T04:43:42.381Z,35.03
2023-04-26T04:44:42.507Z,34.99
2023-04-26T04:45:42.596Z,34.94
2023-04-26T04:46:42.706Z,34.94
2023-04-26T04:47:42.713Z,34.90
2023-04-26T04:48:42.654Z,34.93
2023-04-26T04:49:42.673Z,35.05
2023-04-26T04:50:42.730Z,35.30
2023-04-26T04:51:42.769Z,35.75
2023-04-26T04:52:42.858Z,36.80
2023-04-26T04:53:42.937Z,36.55
2023-04-26T04:54:42.993Z,36.81
2023-04-26T04:55:43.022Z,36.79
2023-04-26T04:56:43.075Z,36.75
2023-04-26T04:57:43.307Z,36.83
2023-04-26T04:58:43.233Z,36.92
2023-04-26T04:59:43.230Z,36.99
2023-04-26T05:00:43.307Z,36.89
2023-04-26T05:01:43.345Z,36.91
2023-04-26T05:02:43.456Z,37.16
2023-04-26T05:03:43.571Z,37.20
2023-04-26T05:04:43.577Z,36.99
2023-04-26T05:05:43.576Z,37.10
2023-04-26T05:06:43.626Z,37.26
2023-04-26T05:07:43.670Z,37.26
2023-04-26T05:08:43.740Z,37.16
2023-04-26T05:09:43.800Z,37.20
2023-04-26T05:10:43.836Z,37.23
2023-04-26T05:11:43.889Z,37.36
2023-04-26T05:12:43.973Z,37.30
2023-04-26T05:13:44.005Z,37.30
2023-04-26T05:14:44.083Z,37.24
2023-04-26T05:15:44.158Z,37.28
2023-04-26T05:16:44.263Z,37.31
2023-04-26T05:17:44.278Z,37.38
2023-04-26T05:18:44.271Z,37.25
2023-04-26T05:19:44.299Z,37.50
2023-04-26T05:20:44.388Z,37.49
2023-04-26T05:21:44.421Z,37.46
2023-04-26T05:22:44.465Z,37.44
2023-04-26T05:23:44.505Z,37.49
2023-04-26T05:24:44.565Z,37.58
2023-04-26T05:25:44.579Z,37.68
2023-04-26T05:26:44.670Z,37.69
2023-04-26T05:27:44.686Z,37.51
2023-04-26T05:28:44.744Z,37.71
2023-04-26T05:29:44.752Z,37.66
2023-04-26T05:30:44.801Z,37.79
2023-04-26T05:31:44.890Z,37.90
2023-04-26T05:32:44.892Z,37.80
2023-04-26T05:33:44.958Z,37.78
2023-04-26T05:34:44.976Z,37.89
2023-04-26T05:35:45.023Z,37.97
2023-04-26T05:36:45.052Z,38.29
2023-04-26T05:37:45.072Z,38.18
2023-04-26T05:38:45.131Z,38.30
2023-04-26T05:39:45.135Z,38.23
2023-04-26T05:40:45.177Z,38.58
2023-04-26T05:41:45.170Z,39.16
2023-04-26T05:42:45.194Z,39.16
2023-04-26T05:43:45.208Z,39.08
2023-04-26T05:44:45.214Z,39.53
2023-04-26T05:45:45.274Z,39.58
2023-04-26T05:46:45.220Z,39.69
2023-04-26T05:47:45.283Z,39.60
2023-04-26T05:48:45.272Z,40.07
2023-04-26T05:49:45.329Z,41.18
2023-04-26T05:50:45.408Z,41.51
2023-04-26T05:51:45.464Z,41.52
2023-04-26T05:52:45.494Z,41.55
2023-04-26T05:53:45.549Z,42.13
2023-04-26T05:54:45.637Z,41.85
2023-04-26T05:55:45.896Z,41.57
2023-04-26T05:56:45.733Z,41.88
2023-04-26T05:57:45.806Z,42.64
2023-04-26T05:58:45.813Z,42.66
2023-04-26T05:59:45.877Z,42.54
2023-04-26T06:00:46.348Z,42.49
2023-04-26T06:01:45.925Z,42.54
2023-04-26T06:02:46.135Z,42.51
2023-04-26T06:03:46.264Z,42.39
2023-04-26T06:04:46.105Z,42.64
2023-04-26T06:05:46.060Z,42.61
2023-04-26T06:06:46.033Z,42.73
2023-04-26T06:07:46.053Z,43.48
2023-04-26T06:08:46.063Z,43.72
2023-04-26T06:09:46.061Z,44.17
2023-04-26T06:10:46.062Z,44.09
2023-04-26T06:11:46.072Z,44.41
2023-04-26T06:12:46.078Z,44.06
2023-04-26T06:13:46.165Z,44.48
2023-04-26T06:14:46.250Z,44.24
2023-04-26T06:15:46.297Z,44.37
2023-04-26T06:16:46.363Z,44.73
2023-04-26T06:17:46.431Z,44.35
2023-04-26T06:18:46.449Z,44.80
2023-04-26T06:19:46.506Z,44.82
2023-04-26T06:20:46.557Z,44.99
2023-04-26T06:21:46.612Z,45.04
2023-04-26T06:22:46.637Z,45.38
2023-04-26T06:23:46.672Z,45.13
2023-04-26T06:24:46.722Z,45.44
2023-04-26T06:25:46.817Z,45.56
2023-04-26T06:26:46.833Z,45.49
2023-04-26T06:27:46.885Z,45.57
2023-04-26T06:28:46.892Z,45.62
2023-04-26T06:29:46.945Z,45.54
2023-04-26T06:30:46.989Z,45.99
2023-04-26T06:31:46.992Z,45.80
2023-04-26T06:32:47.130Z,45.62
2023-04-26T06:33:47.058Z,45.39
2023-04-26T06:34:47.094Z,45.20
2023-04-26T06:35:47.398Z,45.01
2023-04-26T06:36:47.141Z,45.03
2023-04-26T06:37:47.178Z,44.98
2023-04-26T06:38:47.199Z,45.02
2023-04-26T06:39:47.207Z,44.87
2023-04-26T06:40:47.239Z,44.86
2023-04-26T06:41:47.252Z,44.99
2023-04-26T06:42:47.244Z,45.04
2023-04-26T06:43:47.281Z,45.00
2023-04-26T06:44:47.274Z,45.18
2023-04-26T06:45:47.377Z,45.24
2023-04-26T06:46:47.350Z,45.11
2023-04-26T06:47:47.451Z,45.30
2023-04-26T06:48:47.388Z,45.35
2023-04-26T06:49:47.394Z,44.43
2023-04-26T06:50:47.483Z,44.68
2023-04-26T06:51:47.450Z,43.20
2023-04-26T06:52:47.484Z,43.15
2023-04-26T06:53:47.486Z,43.71
2023-04-26T06:54:56.393Z,44.92
2023-04-26T06:55:48.536Z,44.96
2023-04-26T06:56:47.525Z,45.26
2023-04-26T06:57:47.529Z,45.62
2023-04-26T06:58:47.506Z,46.10
2023-04-26T06:59:47.489Z,46.13
2023-04-26T07:00:47.495Z,46.59
2023-04-26T07:01:47.494Z,46.80
2023-04-26T07:02:47.562Z,46.85
2023-04-26T07:03:47.620Z,46.90
2023-04-26T07:04:47.781Z,47.00
2023-04-26T07:05:47.896Z,46.87
2023-04-26T07:06:47.468Z,46.91
2023-04-26T07:07:47.502Z,46.91
2023-04-26T07:08:47.469Z,46.92
2023-04-26T07:09:47.461Z,46.94
2023-04-26T07:10:47.489Z,47.00
2023-04-26T07:11:47.436Z,47.07
2023-04-26T07:12:47.433Z,47.28
2023-04-26T07:13:47.436Z,47.44
2023-04-26T07:14:47.423Z,47.65
2023-04-26T07:15:47.933Z,47.86
2023-04-26T07:16:47.537Z,47.95
2023-04-26T07:17:47.588Z,48.15
2023-04-26T07:18:47.587Z,48.33
2023-04-26T07:19:47.660Z,48.53
2023-04-26T07:20:47.725Z,48.84
2023-04-26T07:21:47.795Z,49.21
2023-04-26T07:22:47.945Z,49.32
2023-04-26T07:23:47.944Z,49.15
2023-04-26T07:24:47.934Z,49.52
2023-04-26T07:25:48.000Z,49.48
2023-04-26T07:26:48.051Z,49.79
2023-04-26T07:27:48.103Z,50.03
2023-04-26T07:28:48.140Z,50.38
2023-04-26T07:29:48.162Z,50.51
2023-04-26T07:30:48.279Z,50.49
2023-04-26T07:31:48.251Z,50.61
2023-04-26T07:32:48.340Z,50.72
2023-04-26T07:33:48.356Z,50.67
2023-04-26T07:34:48.318Z,50.77
2023-04-26T07:35:48.387Z,50.79
2023-04-26T07:36:48.428Z,50.88
2023-04-26T07:37:48.449Z,51.13
2023-04-26T07:38:48.506Z,51.43
2023-04-26T07:39:48.513Z,51.81
2023-04-26T07:40:48.909Z,51.77
2023-04-26T07:41:48.542Z,52.09
2023-04-26T07:42:48.578Z,52.03
2023-04-26T07:43:48.630Z,51.69
2023-04-26T07:44:48.737Z,51.60
2023-04-26T07:45:48.702Z,51.36
2023-04-26T07:46:48.710Z,51.35
2023-04-26T07:47:48.758Z,51.23
2023-04-26T07:48:48.753Z,51.11
2023-04-26T07:49:48.768Z,51.07
2023-04-26T07:50:48.916Z,51.02
2023-04-26T07:51:50.487Z,51.21
2023-04-26T07:52:48.887Z,51.36
2023-04-26T07:53:48.910Z,51.32
2023-04-26T07:54:49.007Z,51.39
2023-04-26T07:55:49.424Z,51.38
2023-04-26T07:56:49.032Z,51.46
2023-04-26T07:57:49.038Z,51.46
2023-04-26T07:58:49.128Z,51.48
2023-04-26T07:59:49.175Z,51.51
2023-04-26T08:00:49.199Z,51.44
2023-04-26T08:01:49.278Z,51.42
2023-04-26T08:02:49.440Z,51.48
2023-04-26T08:03:49.558Z,51.48
2023-04-26T08:04:49.631Z,51.48
2023-04-26T08:05:49.638Z,51.62
2023-04-26T08:06:49.509Z,51.65
2023-04-26T08:07:49.585Z,51.70
2023-04-26T08:08:49.630Z,51.68
2023-04-26T08:09:49.688Z,51.78
2023-04-26T08:10:49.897Z,51.82
2023-04-26T08:11:49.820Z,51.81
2023-04-26T08:12:49.842Z,51.75
2023-04-26T08:13:49.900Z,51.72
2023-04-26T08:14:49.978Z,51.68
2023-04-26T08:15:49.968Z,51.76
2023-04-26T08:16:50.063Z,51.71
2023-04-26T08:17:50.140Z,51.70
2023-04-26T08:18:50.111Z,51.65
2023-04-26T08:19:50.177Z,51.50
2023-04-26T08:20:50.250Z,51.34
2023-04-26T08:21:50.340Z,51.38
2023-04-26T08:22:50.405Z,51.47
2023-04-26T08:23:50.748Z,51.49
2023-04-26T08:24:50.498Z,51.50
2023-04-26T08:25:50.551Z,51.56
2023-04-26T08:26:50.633Z,51.54
2023-04-26T08:27:50.636Z,51.59
2023-04-26T08:28:50.709Z,51.70
2023-04-26T08:29:51.412Z,51.70
2023-04-26T08:30:50.859Z,51.65
2023-04-26T08:31:50.890Z,51.64
2023-04-26T08:32:50.970Z,51.50
2023-04-26T08:33:51.278Z,51.43
2023-04-26T08:34:51.055Z,51.39
2023-04-26T08:35:51.425Z,51.29
2023-04-26T08:36:51.178Z,51.20
2023-04-26T08:37:51.229Z,51.38
2023-04-26T08:38:51.281Z,51.59
2023-04-26T08:39:51.342Z,51.73
2023-04-26T08:40:51.416Z,51.76
2023-04-26T08:41:51.441Z,51.90
2023-04-26T08:42:51.572Z,51.89
2023-04-26T08:43:51.849Z,51.91
2023-04-26T08:44:51.617Z,51.86
2023-04-26T08:45:52.010Z,51.83
2023-04-26T08:46:51.707Z,51.87
2023-04-26T08:47:51.793Z,51.70
2023-04-26T08:48:51.825Z,51.75
2023-04-26T08:49:51.884Z,51.88
2023-04-26T08:50:52.443Z,51.89
2023-04-26T08:51:51.987Z,51.93
2023-04-26T08:52:52.074Z,52.09
2023-04-26T08:53:52.195Z,52.13
2023-04-26T08:54:52.141Z,52.12
2023-04-26T08:55:52.193Z,52.03
2023-04-26T08:56:52.234Z,51.93
2023-04-26T08:57:52.284Z,51.80
2023-04-26T08:58:52.349Z,51.83
2023-04-26T08:59:52.398Z,51.86
2023-04-26T09:00:52.476Z,51.82
2023-04-26T09:01:52.568Z,51.85
2023-04-26T09:02:53.062Z,51.76
2023-04-26T09:03:52.972Z,51.71
2023-04-26T09:04:52.779Z,51.84
2023-04-26T09:05:52.715Z,51.90
2023-04-26T09:06:52.739Z,51.87
2023-04-26T09:07:52.794Z,52.03
2023-04-26T09:08:52.859Z,52.16
2023-04-26T09:09:52.910Z,52.12
2023-04-26T09:10:52.949Z,52.26
2023-04-26T09:11:52.972Z,52.29
2023-04-26T09:12:53.042Z,52.33
2023-04-26T09:13:53.306Z,52.33
2023-04-26T09:14:53.168Z,52.31
2023-04-26T09:15:53.273Z,52.33
2023-04-26T09:16:53.305Z,52.29
2023-04-26T09:17:53.377Z,52.24
2023-04-26T09:18:53.548Z,52.36
2023-04-26T09:19:53.359Z,52.35
2023-04-26T09:20:53.420Z,52.30
2023-04-26T09:21:53.465Z,52.36
2023-04-26T09:22:53.521Z,52.24
2023-04-26T09:23:53.547Z,52.11
2023-04-26T09:24:53.593Z,51.97
2023-04-26T09:25:53.644Z,51.99
2023-04-26T09:26:53.690Z,52.03
2023-04-26T09:27:53.745Z,52.11
2023-04-26T09:28:53.876Z,52.07
2023-04-26T09:29:53.829Z,52.15
2023-04-26T09:30:53.983Z,52.03
2023-04-26T09:31:53.986Z,51.96
2023-04-26T09:32:53.978Z,52.24
2023-04-26T09:33:54.037Z,52.13
2023-04-26T09:34:54.046Z,52.05
2023-04-26T09:35:54.075Z,52.10
2023-04-26T09:36:54.085Z,52.05
2023-04-26T09:37:58.757Z,52.17
2023-04-26T09:38:55.137Z,52.42
2023-04-26T09:39:54.135Z,52.72
2023-04-26T09:40:54.452Z,53.72
2023-04-26T09:41:54.092Z,53.99
2023-04-26T09:42:54.103Z,53.91
2023-04-26T09:43:54.088Z,53.89
2023-04-26T09:44:54.111Z,53.58
2023-04-26T09:45:54.448Z,53.41
2023-04-26T09:46:54.198Z,53.38
2023-04-26T09:47:54.124Z,53.27
2023-04-26T09:48:54.214Z,53.16
2023-04-26T09:49:54.061Z,53.09
2023-04-26T09:50:54.531Z,53.01
2023-04-26T09:51:54.044Z,53.08
2023-04-26T09:52:54.058Z,53.18
2023-04-26T09:53:55.605Z,53.20
2023-04-26T09:54:54.194Z,53.13
2023-04-26T09:55:54.270Z,53.04
2023-04-26T09:56:54.231Z,52.83
2023-04-26T09:57:54.270Z,52.72
2023-04-26T09:58:56.013Z,52.57
2023-04-26T09:59:55.541Z,52.46
2023-04-26T10:00:54.364Z,52.32
2023-04-26T10:01:54.312Z,52.33
2023-04-26T10:02:54.616Z,52.42
2023-04-26T10:03:54.618Z,52.32
2023-04-26T10:04:54.650Z,52.38
2023-04-26T10:05:54.478Z,52.33
2023-04-26T10:06:54.465Z,52.32
2023-04-26T10:07:54.518Z,52.18
2023-04-26T10:08:54.822Z,52.23
2023-04-26T10:09:55.542Z,52.34
2023-04-26T10:10:54.558Z,52.50
2023-04-26T10:11:54.563Z,52.54
2023-04-26T10:12:54.599Z,52.68
2023-04-26T10:13:54.617Z,52.66
2023-04-26T10:14:54.658Z,52.69
2023-04-26T10:15:54.685Z,52.51
2023-04-26T10:16:54.951Z,52.38
2023-04-26T10:17:54.748Z,52.28
2023-04-26T10:18:55.120Z,52.20
2023-04-26T10:19:54.765Z,52.18
2023-04-26T10:20:54.826Z,52.18
2023-04-26T10:21:54.818Z,52.14
2023-04-26T10:22:54.860Z,52.15
2023-04-26T10:23:54.861Z,52.09
2023-04-26T10:24:54.962Z,51.97
2023-04-26T10:25:54.991Z,51.90
2023-04-26T10:26:55.102Z,51.86
2023-04-26T10:27:54.983Z,51.84
2023-04-26T10:28:58.332Z,51.81
2023-04-26T10:29:56.003Z,51.81
2023-04-26T10:30:55.020Z,51.82
2023-04-26T10:31:55.038Z,51.83
2023-04-26T10:32:55.048Z,51.88
2023-04-26T10:33:54.970Z,51.88
2023-04-26T10:34:54.964Z,51.93
2023-04-26T10:35:54.967Z,51.90
2023-04-26T10:36:54.954Z,51.95
2023-04-26T10:37:54.929Z,51.92
2023-04-26T10:38:55.111Z,51.87
2023-04-26T10:39:54.902Z,51.96
2023-04-26T10:40:55.294Z,51.87
2023-04-26T10:41:54.937Z,51.78
2023-04-26T10:42:54.938Z,51.77
2023-04-26T10:43:55.307Z,51.71
2023-04-26T10:44:54.893Z,51.64
2023-04-26T10:45:54.932Z,51.49
2023-04-26T10:46:54.918Z,51.34
2023-04-26T10:47:54.948Z,51.24
2023-04-26T10:48:55.021Z,51.18
2023-04-26T10:49:54.875Z,51.16
2023-04-26T10:50:54.890Z,51.15
2023-04-26T10:51:54.845Z,51.16
2023-04-26T10:52:55.524Z,51.16
2023-04-26T10:53:55.187Z,51.12
2023-04-26T10:54:54.888Z,51.07
2023-04-26T10:55:54.845Z,51.11
2023-04-26T10:56:54.832Z,51.20
2023-04-26T10:57:54.826Z,51.22
2023-04-26T10:58:54.842Z,51.23
2023-04-26T10:59:55.501Z,51.23
2023-04-26T11:00:54.922Z,51.28
2023-04-26T11:01:55.141Z,51.31
2023-04-26T11:02:55.054Z,51.28
2023-04-26T11:03:55.204Z,51.23
2023-04-26T11:04:55.000Z,51.22
2023-04-26T11:05:54.902Z,51.17
2023-04-26T11:06:54.908Z,51.11
2023-04-26T11:07:54.945Z,51.01
2023-04-26T11:08:55.402Z,50.90
2023-04-26T11:09:54.903Z,50.74
2023-04-26T11:10:54.967Z,50.61
2023-04-26T11:11:54.952Z,50.40
2023-04-26T11:12:54.984Z,50.16
2023-04-26T11:13:54.986Z,50.05
2023-04-26T11:14:54.957Z,49.76
2023-04-26T11:15:55.150Z,49.57
2023-04-26T11:16:54.999Z,49.44
2023-04-26T11:17:55.043Z,49.29
2023-04-26T11:18:55.200Z,49.20
2023-04-26T11:19:54.988Z,49.19
2023-04-26T11:20:55.022Z,49.20
2023-04-26T11:21:56.316Z,49.24
2023-04-26T11:22:55.043Z,49.28
2023-04-26T11:23:55.050Z,49.28
2023-04-26T11:24:55.901Z,49.31
2023-04-26T11:25:55.485Z,49.30
2023-04-26T11:26:55.037Z,49.30
2023-04-26T11:27:55.049Z,49.31
2023-04-26T11:28:55.240Z,49.32
2023-04-26T11:29:55.083Z,49.27
2023-04-26T11:30:55.529Z,49.26
2023-04-26T11:31:55.207Z,49.28
2023-04-26T11:32:55.128Z,49.38
2023-04-26T11:33:55.057Z,49.42
2023-04-26T11:34:55.055Z,49.39
2023-04-26T11:35:55.071Z,49.39
2023-04-26T11:36:55.471Z,49.36
2023-04-26T11:37:55.123Z,49.42
2023-04-26T11:38:55.092Z,49.37
2023-04-26T11:39:55.104Z,49.49
2023-04-26T11:40:55.181Z,49.62
2023-04-26T11:41:55.191Z,49.60
2023-04-26T11:42:55.229Z,49.62
2023-04-26T11:43:55.405Z,49.54
2023-04-26T11:44:55.322Z,49.53
2023-04-26T11:45:55.375Z,49.50
2023-04-26T11:46:55.458Z,49.48
2023-04-26T11:47:55.536Z,49.54
2023-04-26T11:48:55.842Z,49.58
2023-04-26T11:49:55.628Z,49.56
2023-04-26T11:50:55.688Z,49.63
2023-04-26T11:51:55.791Z,49.59
2023-04-26T11:52:55.798Z,49.59
2023-04-26T11:53:55.848Z,49.63
2023-04-26T11:54:55.955Z,49.66
2023-04-26T11:55:56.000Z,49.63
2023-04-26T11:56:56.039Z,49.52
2023-04-26T11:57:56.102Z,49.38
2023-04-26T11:58:56.265Z,49.18
2023-04-26T11:59:56.230Z,49.12
2023-04-26T12:00:56.254Z,48.99
2023-04-26T12:01:56.431Z,49.01
2023-04-26T12:02:56.479Z,49.11
2023-04-26T12:03:56.664Z,49.24
2023-04-26T12:04:56.626Z,49.43
2023-04-26T12:05:56.590Z,49.43
2023-04-26T12:06:56.593Z,49.49
2023-04-26T12:07:56.674Z,49.70
2023-04-26T12:08:56.738Z,49.79
2023-04-26T12:09:58.072Z,49.74
2023-04-26T12:10:56.895Z,49.67
2023-04-26T12:11:56.911Z,49.64
2023-04-26T12:12:57.122Z,49.66
2023-04-26T12:13:56.982Z,49.70
2023-04-26T12:14:57.071Z,49.69
2023-04-26T12:15:57.098Z,49.71
2023-04-26T12:16:57.254Z,49.68
2023-04-26T12:17:57.274Z,49.74
2023-04-26T12:18:57.392Z,49.74
2023-04-26T12:19:57.334Z,49.86
2023-04-26T12:20:57.378Z,49.93
2023-04-26T12:21:57.428Z,49.92
2023-04-26T12:22:57.501Z,49.89
2023-04-26T12:23:57.523Z,49.85
2023-04-26T12:24:57.588Z,49.85
2023-04-26T12:25:57.620Z,49.85
2023-04-26T12:26:58.691Z,49.74
2023-04-26T12:27:57.684Z,49.77
2023-04-26T12:28:57.754Z,49.66
2023-04-26T12:29:57.799Z,49.65
2023-04-26T12:30:57.840Z,49.66
2023-04-26T12:31:57.951Z,49.62
2023-04-26T12:33:05.719Z,49.66
2023-04-26T12:33:58.924Z,49.67
2023-04-26T12:34:57.893Z,49.74
2023-04-26T12:35:57.972Z,49.80
2023-04-26T12:36:57.933Z,49.79
2023-04-26T12:37:57.906Z,49.96
2023-04-26T12:38:57.916Z,49.87
2023-04-26T12:39:57.863Z,49.86
2023-04-26T12:40:57.891Z,49.82
2023-04-26T12:41:57.852Z,49.72
2023-04-26T12:42:57.923Z,49.78
2023-04-26T12:43:57.859Z,49.66
2023-04-26T12:44:57.908Z,49.67
2023-04-26T12:45:57.943Z,49.61
2023-04-26T12:46:58.014Z,49.54
2023-04-26T12:47:58.012Z,49.51
2023-04-26T12:48:58.009Z,49.49
2023-04-26T12:49:58.038Z,49.46
2023-04-26T12:50:58.084Z,49.47
2023-04-26T12:51:58.188Z,49.44
2023-04-26T12:52:58.181Z,49.46